createdAt,value
2017-10-22T00:00:19.100Z,1002.53
2017-10-22T00:01:29.132Z,1002.44
2017-10-22T00:02:38.835Z,1002.56
2017-10-22T00:03:48.885Z,1002.5
2017-10-22T00:04:58.262Z,1002.53
2017-10-22T00:06:07.968Z,1002.58
2017-10-22T00:07:17.674Z,1002.48
2017-10-22T00:08:27.699Z,1002.58
2017-10-22T00:09:37.067Z,1002.56
2017-10-22T00:10:47.164Z,1002.55
2017-10-22T00:11:56.875Z,1002.5
2017-10-22T00:13:06.895Z,1002.47
2017-10-22T00:14:16.925Z,1002.5
2017-10-22T00:15:26.636Z,1002.53
2017-10-22T00:16:36.654Z,1002.49
2017-10-22T00:17:46.350Z,1002.68
2017-10-22T00:18:55.703Z,1002.57
2017-10-22T00:20:05.732Z,1002.53
2017-10-22T00:21:15.419Z,1002.5
2017-10-22T00:22:24.781Z,1002.45
2017-10-22T00:23:34.480Z,1002.52
2017-10-22T00:24:44.176Z,1002.46
2017-10-22T00:25:53.872Z,1002.47
2017-10-22T00:27:03.884Z,1002.43
2017-10-22T00:28:13.571Z,1002.38
2017-10-22T00:29:23.592Z,1002.53
2017-10-22T00:30:33.273Z,1002.48
2017-10-22T00:31:43.319Z,1002.54
2017-10-22T00:32:53.347Z,1002.44
2017-10-22T00:34:02.359Z,1002.63
2017-10-22T00:35:12.736Z,1002.54
2017-10-22T00:36:22.765Z,1002.49
2017-10-22T00:37:32.464Z,1002.53
2017-10-22T00:38:42.145Z,1002.49
2017-10-22T00:39:52.183Z,1002.46
2017-10-22T00:41:01.541Z,1002.49
2017-10-22T00:42:11.557Z,1002.38
2017-10-22T00:43:21.582Z,1002.52
2017-10-22T00:44:31.946Z,1002.54
2017-10-22T00:45:41.647Z,1002.44
2017-10-22T00:46:52.012Z,1002.33
2017-10-22T00:48:02.048Z,1002.36
2017-10-22T00:49:12.426Z,1002.36
2017-10-22T00:50:22.450Z,1002.27
2017-10-22T00:51:31.801Z,1002.37
2017-10-22T00:52:41.816Z,1002.37
2017-10-22T00:53:51.844Z,1002.32
2017-10-22T00:55:01.879Z,1002.31
2017-10-22T00:56:11.904Z,1002.29
2017-10-22T00:57:20.910Z,1002.28
2017-10-22T00:58:30.603Z,1002.24
2017-10-22T00:59:40.299Z,1002.16
2017-10-22T01:00:50.000Z,1002.18
2017-10-22T01:01:59.696Z,1002.13
2017-10-22T01:03:09.388Z,1002.14
2017-10-22T01:04:19.423Z,1002.15
2017-10-22T01:05:29.443Z,1002.1
2017-10-22T01:06:39.137Z,1002.17
2017-10-22T01:07:49.514Z,1002.07
2017-10-22T01:08:59.209Z,1002.22
2017-10-22T01:10:08.886Z,1002.02
2017-10-22T01:11:19.260Z,1002.12
2017-10-22T01:12:28.949Z,1002.08
2017-10-22T01:13:38.962Z,1002.08
2017-10-22T01:14:49.311Z,1002.03
2017-10-22T01:15:59.011Z,1001.93
2017-10-22T01:17:09.394Z,1002.07
2017-10-22T01:18:19.418Z,1002
2017-10-22T01:19:29.780Z,1002.13
2017-10-22T01:20:39.804Z,1002.1
2017-10-22T01:21:49.163Z,1002.06
2017-10-22T01:22:58.176Z,1002.05
2017-10-22T01:24:08.679Z,1002.13
2017-10-22T01:25:20.400Z,1001.99
2017-10-22T01:26:30.127Z,1002.13
2017-10-22T01:27:40.039Z,1002.14
2017-10-22T01:28:50.258Z,1002.09
2017-10-22T01:30:00.340Z,1002.05
2017-10-22T01:31:10.619Z,1002
2017-10-22T01:32:21.156Z,1002.09
2017-10-22T01:33:30.932Z,1002.07
2017-10-22T01:34:46.040Z,1002.07
2017-10-22T01:35:57.598Z,1002.03
2017-10-22T01:37:08.138Z,1002
2017-10-22T01:38:18.338Z,1001.97
2017-10-22T01:39:28.074Z,1002.03
2017-10-22T01:40:38.669Z,1001.99
2017-10-22T01:41:48.463Z,1002.05
2017-10-22T01:42:58.519Z,1001.91
2017-10-22T01:44:08.780Z,1002.02
2017-10-22T01:45:18.287Z,1002.02
2017-10-22T01:46:27.998Z,1001.93
2017-10-22T01:47:38.218Z,1001.97
2017-10-22T01:48:47.703Z,1002.11
2017-10-22T01:49:56.740Z,1001.92
2017-10-22T01:51:06.994Z,1001.87
2017-10-22T01:52:17.214Z,1001.98
2017-10-22T01:53:27.609Z,1002
2017-10-22T01:54:38.200Z,1001.96
2017-10-22T01:55:48.716Z,1002.06
2017-10-22T01:56:59.114Z,1002.05
2017-10-22T01:58:09.355Z,1002.01
2017-10-22T01:59:19.193Z,1002
2017-10-22T02:00:28.590Z,1002.07
2017-10-22T02:01:38.515Z,1002.02
2017-10-22T02:02:48.339Z,1002.07
2017-10-22T02:03:58.480Z,1002.06
2017-10-22T02:05:12.522Z,1002.04
2017-10-22T02:06:23.478Z,1001.96
2017-10-22T02:07:33.532Z,1002.04
2017-10-22T02:08:43.937Z,1001.87
2017-10-22T02:09:53.612Z,1001.82
2017-10-22T02:11:03.628Z,1001.94
2017-10-22T02:12:12.975Z,1001.95
2017-10-22T02:13:22.996Z,1001.95
2017-10-22T02:14:33.010Z,1001.92
2017-10-22T02:15:42.690Z,1002.09
2017-10-22T02:16:52.700Z,1001.94
2017-10-22T02:18:02.379Z,1001.86
2017-10-22T02:19:11.389Z,1001.88
2017-10-22T02:20:21.064Z,1001.84
2017-10-22T02:21:31.429Z,1001.88
2017-10-22T02:22:41.117Z,1001.87
2017-10-22T02:23:50.791Z,1001.77
2017-10-22T02:25:00.131Z,1001.86
2017-10-22T02:26:10.159Z,1001.72
2017-10-22T02:27:20.184Z,1001.84
2017-10-22T02:28:30.197Z,1001.87
2017-10-22T02:29:39.872Z,1001.69
2017-10-22T02:30:49.221Z,1001.73
2017-10-22T02:31:58.903Z,1001.86
2017-10-22T02:33:08.918Z,1001.67
2017-10-22T02:34:18.588Z,1001.7
2017-10-22T02:35:28.298Z,1001.72
2017-10-22T02:36:37.975Z,1001.66
2017-10-22T02:37:47.653Z,1001.67
2017-10-22T02:38:57.000Z,1001.71
2017-10-22T02:40:07.015Z,1001.71
2017-10-22T02:41:17.023Z,1001.69
2017-10-22T02:42:26.371Z,1001.67
2017-10-22T02:43:35.375Z,1001.65
2017-10-22T02:44:44.716Z,1001.66
2017-10-22T02:45:54.058Z,1001.66
2017-10-22T02:47:03.735Z,1001.56
2017-10-22T02:48:13.426Z,1001.7
2017-10-22T02:49:23.778Z,1001.6
2017-10-22T02:50:33.456Z,1001.5
2017-10-22T02:51:43.140Z,1001.52
2017-10-22T02:52:53.152Z,1001.55
2017-10-22T02:54:03.506Z,1001.56
2017-10-22T02:55:13.194Z,1001.51
2017-10-22T02:56:23.558Z,1001.51
2017-10-22T02:57:33.910Z,1001.58
2017-10-22T02:58:44.271Z,1001.52
2017-10-22T02:59:54.296Z,1001.53
2017-10-22T03:01:04.315Z,1001.45
2017-10-22T03:02:14.328Z,1001.47
2017-10-22T03:03:24.351Z,1001.46
2017-10-22T03:04:34.036Z,1001.4
2017-10-22T03:05:43.716Z,1001.46
2017-10-22T03:06:53.394Z,1001.31
2017-10-22T03:08:02.737Z,1001.59
2017-10-22T03:09:12.417Z,1001.33
2017-10-22T03:10:22.440Z,1001.41
2017-10-22T03:11:32.117Z,1001.31
2017-10-22T03:12:42.152Z,1001.42
2017-10-22T03:13:52.175Z,1001.28
2017-10-22T03:15:02.186Z,1001.36
2017-10-22T03:16:11.527Z,1001.17
2017-10-22T03:17:21.202Z,1001.21
2017-10-22T03:18:30.890Z,1001.25
2017-10-22T03:19:40.572Z,1001.23
2017-10-22T03:20:50.588Z,1001.23
2017-10-22T03:22:00.262Z,1001.26
2017-10-22T03:23:10.271Z,1001.2
2017-10-22T03:24:20.300Z,1001.18
2017-10-22T03:25:29.975Z,1001.15
2017-10-22T03:26:39.670Z,1001.08
2017-10-22T03:27:49.012Z,1001.23
2017-10-22T03:28:59.043Z,1001.05
2017-10-22T03:30:09.074Z,1001.07
2017-10-22T03:31:19.436Z,1001.09
2017-10-22T03:32:29.812Z,1001.14
2017-10-22T03:33:39.491Z,1001.1
2017-10-22T03:34:48.836Z,1001.05
2017-10-22T03:35:59.196Z,1001.12
2017-10-22T03:37:08.884Z,1001.18
2017-10-22T03:38:18.565Z,1001
2017-10-22T03:39:28.237Z,1001.05
2017-10-22T03:40:37.920Z,1001.07
2017-10-22T03:41:48.267Z,1001.1
2017-10-22T03:42:57.945Z,1001.02
2017-10-22T03:44:07.618Z,1001.07
2017-10-22T03:45:17.629Z,1001.02
2017-10-22T03:46:27.641Z,1001.09
2017-10-22T03:47:37.000Z,1001.03
2017-10-22T03:48:47.014Z,1001.08
2017-10-22T03:49:57.360Z,1001.1
2017-10-22T03:51:06.702Z,1001.01
2017-10-22T03:52:17.054Z,1001.08
2017-10-22T03:53:27.075Z,1001.02
2017-10-22T03:54:36.752Z,1001.08
2017-10-22T03:55:46.764Z,1001.19
2017-10-22T03:56:56.778Z,1000.96
2017-10-22T03:58:06.452Z,1001.06
2017-10-22T03:59:16.494Z,1001.15
2017-10-22T04:00:26.517Z,1001.1
2017-10-22T04:01:36.530Z,1001.14
2017-10-22T04:02:46.878Z,1001.11
2017-10-22T04:03:57.227Z,1001.2
2017-10-22T04:05:07.569Z,1001.23
2017-10-22T04:06:16.907Z,1001.17
2017-10-22T04:07:26.594Z,1001.09
2017-10-22T04:08:36.610Z,1001.31
2017-10-22T04:09:46.624Z,1001.33
2017-10-22T04:10:56.291Z,1001.3
2017-10-22T04:12:05.632Z,1001.35
2017-10-22T04:13:14.644Z,1001.35
2017-10-22T04:14:24.001Z,1001.36
2017-10-22T04:15:34.029Z,1001.38
2017-10-22T04:16:43.374Z,1001.4
2017-10-22T04:17:53.386Z,1001.43
2017-10-22T04:19:03.730Z,1001.29
2017-10-22T04:20:13.754Z,1001.41
2017-10-22T04:21:23.810Z,1001.34
2017-10-22T04:22:33.836Z,1001.51
2017-10-22T04:23:43.176Z,1001.46
2017-10-22T04:24:52.848Z,1001.37
2017-10-22T04:26:02.524Z,1001.47
2017-10-22T04:27:12.585Z,1001.59
2017-10-22T04:28:22.271Z,1001.49
2017-10-22T04:29:32.283Z,1001.56
2017-10-22T04:30:41.963Z,1001.42
2017-10-22T04:31:51.305Z,1001.57
2017-10-22T04:33:01.680Z,1001.43
2017-10-22T04:34:11.689Z,1001.47
2017-10-22T04:35:21.359Z,1001.43
2017-10-22T04:36:31.038Z,1001.37
2017-10-22T04:37:40.375Z,1001.34
2017-10-22T04:38:50.716Z,1001.34
2017-10-22T04:40:00.410Z,1001.33
2017-10-22T04:41:10.088Z,1001.35
2017-10-22T04:42:19.090Z,1001.3
2017-10-22T04:43:29.104Z,1001.17
2017-10-22T04:44:39.448Z,1001.28
2017-10-22T04:45:49.154Z,1001.19
2017-10-22T04:46:59.541Z,1001.15
2017-10-22T04:48:09.607Z,1001.07
2017-10-22T04:49:19.277Z,1000.89
2017-10-22T04:50:28.961Z,1001.15
2017-10-22T04:51:38.649Z,1001.17
2017-10-22T04:52:49.143Z,1001.1
2017-10-22T04:53:59.149Z,1001.09
2017-10-22T04:55:09.500Z,1001.13
2017-10-22T04:56:19.219Z,1001.14
2017-10-22T04:57:29.264Z,1001.04
2017-10-22T04:58:39.274Z,1001.07
2017-10-22T04:59:48.948Z,1001.07
2017-10-22T05:00:58.628Z,1001.06
2017-10-22T05:02:07.632Z,1001.09
2017-10-22T05:03:17.659Z,1001.07
2017-10-22T05:04:27.666Z,1000.94
2017-10-22T05:05:37.338Z,1000.89
2017-10-22T05:06:47.007Z,1000.89
2017-10-22T05:07:56.680Z,1000.81
2017-10-22T05:09:06.698Z,1000.87
2017-10-22T05:10:17.048Z,1000.93
2017-10-22T05:11:27.391Z,1000.81
2017-10-22T05:12:37.065Z,1000.8
2017-10-22T05:13:47.116Z,1000.84
2017-10-22T05:14:56.454Z,1000.71
2017-10-22T05:16:05.792Z,1000.78
2017-10-22T05:17:14.794Z,1000.77
2017-10-22T05:18:24.809Z,1000.8
2017-10-22T05:19:33.831Z,1000.83
2017-10-22T05:20:43.843Z,1000.75
2017-10-22T05:21:53.194Z,1000.86
2017-10-22T05:23:03.203Z,1000.96
2017-10-22T05:24:12.541Z,1000.86
2017-10-22T05:25:22.549Z,1000.82
2017-10-22T05:26:32.234Z,1000.84
2017-10-22T05:27:42.243Z,1000.77
2017-10-22T05:28:51.282Z,1000.82
2017-10-22T05:30:00.639Z,1000.87
2017-10-22T05:31:10.315Z,1000.82
2017-10-22T05:32:20.019Z,1000.91
2017-10-22T05:33:30.045Z,1000.89
2017-10-22T05:34:40.428Z,1001
2017-10-22T05:35:50.103Z,1000.81
2017-10-22T05:36:59.779Z,1000.83
2017-10-22T05:38:09.792Z,1000.87
2017-10-22T05:39:19.470Z,1000.74
2017-10-22T05:40:29.478Z,1000.84
2017-10-22T05:41:39.155Z,1000.84
2017-10-22T05:42:49.167Z,1000.94
2017-10-22T05:43:59.595Z,1000.9
2017-10-22T05:45:09.269Z,1000.85
2017-10-22T05:46:19.307Z,1000.68
2017-10-22T05:47:28.984Z,1001.06
2017-10-22T05:48:38.673Z,1000.84
2017-10-22T05:49:49.018Z,1000.91
2017-10-22T05:50:58.353Z,1000.8
2017-10-22T05:52:08.065Z,1001
2017-10-22T05:53:17.754Z,1000.89
2017-10-22T05:54:27.783Z,1000.98
2017-10-22T05:55:37.465Z,1001.05
2017-10-22T05:56:46.809Z,1000.93
2017-10-22T05:57:56.822Z,1000.88
2017-10-22T05:59:06.160Z,1001.04
2017-10-22T06:00:15.495Z,1000.89
2017-10-22T06:01:25.865Z,1000.97
2017-10-22T06:02:35.571Z,1000.72
2017-10-22T06:03:45.257Z,1000.92
2017-10-22T06:04:55.624Z,1000.68
2017-10-22T06:06:04.960Z,1000.8
2017-10-22T06:07:14.964Z,1000.94
2017-10-22T06:08:24.966Z,1001.1
2017-10-22T06:09:34.999Z,1000.97
2017-10-22T06:10:45.068Z,1000.99
2017-10-22T06:11:55.074Z,1000.89
2017-10-22T06:13:05.435Z,1001.01
2017-10-22T06:14:15.446Z,1001
2017-10-22T06:15:24.789Z,1000.97
2017-10-22T06:16:34.467Z,1001.14
2017-10-22T06:17:44.834Z,1001.17
2017-10-22T06:18:54.280Z,1001.06
2017-10-22T06:20:03.965Z,1001
2017-10-22T06:21:13.978Z,1001.17
2017-10-22T06:22:23.996Z,1001.08
2017-10-22T06:23:33.668Z,1001.1
2017-10-22T06:24:43.687Z,1001.12
2017-10-22T06:25:53.696Z,1001.16
2017-10-22T06:27:03.035Z,1001.2
2017-10-22T06:28:12.731Z,1001.26
2017-10-22T06:29:22.745Z,1001.16
2017-10-22T06:30:32.763Z,1001.23
2017-10-22T06:31:42.432Z,1001.3
2017-10-22T06:32:52.465Z,1001.18
2017-10-22T06:34:02.472Z,1001.32
2017-10-22T06:35:12.513Z,1001.15
2017-10-22T06:36:22.532Z,1001.25
2017-10-22T06:37:32.203Z,1001.33
2017-10-22T06:38:41.542Z,1001.34
2017-10-22T06:39:50.876Z,1001.29
2017-10-22T06:41:01.276Z,1001.28
2017-10-22T06:42:11.089Z,1001.26
2017-10-22T06:43:21.194Z,1001.33
2017-10-22T06:44:31.223Z,1001.4
2017-10-22T06:45:41.565Z,1001.45
2017-10-22T06:46:51.922Z,1001.37
2017-10-22T06:48:01.962Z,1001.39
2017-10-22T06:49:10.967Z,1001.49
2017-10-22T06:50:20.319Z,1001.27
2017-10-22T06:51:30.341Z,1001.3
2017-10-22T06:52:40.017Z,1001.31
2017-10-22T06:53:50.032Z,1001.34
2017-10-22T06:55:00.067Z,1001.4
2017-10-22T06:56:09.420Z,1001.45
2017-10-22T06:57:19.095Z,1001.46
2017-10-22T06:58:28.790Z,1001.48
2017-10-22T06:59:38.830Z,1001.45
2017-10-22T07:00:48.843Z,1001.16
2017-10-22T07:01:58.520Z,1001.49
2017-10-22T07:03:08.196Z,1001.27
2017-10-22T07:04:18.226Z,1001.44
2017-10-22T07:05:28.256Z,1001.46
2017-10-22T07:06:38.331Z,1001.47
2017-10-22T07:07:48.147Z,1001.29
2017-10-22T07:08:58.160Z,1001.45
2017-10-22T07:10:07.832Z,1001.47
2017-10-22T07:11:17.840Z,1001.66
2017-10-22T07:12:26.894Z,1001.55
2017-10-22T07:13:36.931Z,1001.58
2017-10-22T07:14:46.318Z,1001.65
2017-10-22T07:15:56.187Z,1001.58
2017-10-22T07:17:06.052Z,1001.48
2017-10-22T07:18:16.602Z,1001.64
2017-10-22T07:19:30.146Z,1001.62
2017-10-22T07:20:41.178Z,1001.79
2017-10-22T07:21:51.215Z,1001.67
2017-10-22T07:23:01.798Z,1001.68
2017-10-22T07:24:11.669Z,1001.57
2017-10-22T07:25:21.507Z,1001.71
2017-10-22T07:26:31.425Z,1001.75
2017-10-22T07:27:41.438Z,1001.68
2017-10-22T07:28:54.537Z,1001.66
2017-10-22T07:30:08.208Z,1001.7
2017-10-22T07:31:18.280Z,1001.71
2017-10-22T07:32:28.199Z,1001.8
2017-10-22T07:33:38.390Z,1001.76
2017-10-22T07:34:48.780Z,1001.8
2017-10-22T07:35:58.918Z,1001.69
2017-10-22T07:37:08.770Z,1001.69
2017-10-22T07:38:19.176Z,1001.72
2017-10-22T07:39:29.410Z,1001.94
2017-10-22T07:40:39.606Z,1001.7
2017-10-22T07:41:49.708Z,1001.79
2017-10-22T07:42:59.981Z,1001.69
2017-10-22T07:44:09.857Z,1001.79
2017-10-22T07:45:19.586Z,1001.8
2017-10-22T07:46:29.446Z,1001.77
2017-10-22T07:47:39.903Z,1001.7
2017-10-22T07:48:50.269Z,1001.71
2017-10-22T07:50:00.709Z,1001.74
2017-10-22T07:51:11.190Z,1001.78
2017-10-22T07:52:21.586Z,1001.8
2017-10-22T07:53:31.772Z,1001.65
2017-10-22T07:54:41.935Z,1001.68
2017-10-22T07:55:51.787Z,1001.77
2017-10-22T07:57:01.162Z,1001.8
2017-10-22T07:58:11.047Z,1001.94
2017-10-22T07:59:21.226Z,1001.84
2017-10-22T08:00:31.680Z,1001.83
2017-10-22T08:01:42.245Z,1001.89
2017-10-22T08:02:52.347Z,1001.87
2017-10-22T08:04:02.289Z,1001.96
2017-10-22T08:05:12.861Z,1002
2017-10-22T08:06:23.282Z,1001.87
2017-10-22T08:07:33.892Z,1001.87
2017-10-22T08:08:43.431Z,1001.96
2017-10-22T08:09:53.815Z,1001.88
2017-10-22T08:11:04.345Z,1001.79
2017-10-22T08:12:14.745Z,1001.87
2017-10-22T08:13:24.829Z,1001.95
2017-10-22T08:14:34.916Z,1001.94
2017-10-22T08:15:43.960Z,1001.83
2017-10-22T08:16:53.763Z,1001.88
2017-10-22T08:18:02.812Z,1002.1
2017-10-22T08:19:12.248Z,1002.04
2017-10-22T08:20:21.978Z,1001.85
2017-10-22T08:21:32.236Z,1001.92
2017-10-22T08:22:42.085Z,1001.87
2017-10-22T08:23:51.958Z,1001.95
2017-10-22T08:25:01.995Z,1001.91
2017-10-22T08:26:12.186Z,1001.97
2017-10-22T08:27:22.051Z,1001.89
2017-10-22T08:28:31.788Z,1002.03
2017-10-22T08:29:41.650Z,1001.89
2017-10-22T08:30:51.522Z,1001.9
2017-10-22T08:32:01.294Z,1001.9
2017-10-22T08:33:11.488Z,1002.02
2017-10-22T08:34:21.954Z,1002.06
2017-10-22T08:35:31.630Z,1002.08
2017-10-22T08:36:41.481Z,1002
2017-10-22T08:37:51.668Z,1002.02
2017-10-22T08:39:01.436Z,1001.99
2017-10-22T08:40:11.492Z,1001.96
2017-10-22T08:41:20.227Z,1002.06
2017-10-22T08:42:30.004Z,1001.99
2017-10-22T08:43:40.072Z,1002.05
2017-10-22T08:44:49.470Z,1002.05
2017-10-22T08:45:59.237Z,1002.04
2017-10-22T08:47:09.022Z,1002.13
2017-10-22T08:48:19.075Z,1002.05
2017-10-22T08:49:29.555Z,1002.05
2017-10-22T08:50:39.338Z,1002.13
2017-10-22T08:51:49.386Z,1002.33
2017-10-22T08:52:58.751Z,1002.16
2017-10-22T08:54:08.898Z,1001.98
2017-10-22T08:55:18.844Z,1002.05
2017-10-22T08:56:28.593Z,1002.15
2017-10-22T08:57:38.097Z,1002.12
2017-10-22T08:58:47.620Z,1002.09
2017-10-22T08:59:57.666Z,1002.29
2017-10-22T09:01:07.445Z,1002.18
2017-10-22T09:02:17.252Z,1002.09
2017-10-22T09:03:27.517Z,1002.14
2017-10-22T09:04:37.220Z,1002.12
2017-10-22T09:05:47.689Z,1002.08
2017-10-22T09:06:57.163Z,1002.14
2017-10-22T09:08:07.522Z,1002.09
2017-10-22T09:09:17.291Z,1002.19
2017-10-22T09:10:27.404Z,1002.22
2017-10-22T09:11:37.419Z,1002.18
2017-10-22T09:12:47.767Z,1002.24
2017-10-22T09:13:57.450Z,1002.33
2017-10-22T09:15:07.128Z,1002.33
2017-10-22T09:16:17.144Z,1002.23
2017-10-22T09:17:27.178Z,1002.39
2017-10-22T09:18:36.873Z,1002.48
2017-10-22T09:19:46.672Z,1002.24
2017-10-22T09:20:56.702Z,1002.28
2017-10-22T09:22:06.455Z,1002.32
2017-10-22T09:23:15.536Z,1002.36
2017-10-22T09:24:25.895Z,1002.35
2017-10-22T09:25:35.975Z,1002.24
2017-10-22T09:26:46.360Z,1002.23
2017-10-22T09:27:55.772Z,1002.33
2017-10-22T09:29:05.673Z,1002.32
2017-10-22T09:30:16.881Z,1002.26
2017-10-22T09:31:26.626Z,1002.19
2017-10-22T09:32:36.640Z,1002.24
2017-10-22T09:33:45.978Z,1002.21
2017-10-22T09:34:55.668Z,1002.22
2017-10-22T09:36:05.379Z,1002.3
2017-10-22T09:37:15.112Z,1002.36
2017-10-22T09:38:24.496Z,1002.26
2017-10-22T09:39:34.763Z,1002.22
2017-10-22T09:40:44.263Z,1002.18
2017-10-22T09:41:54.039Z,1002.35
2017-10-22T09:43:04.643Z,1002.38
2017-10-22T09:44:14.867Z,1002.27
2017-10-22T09:45:25.084Z,1002.25
2017-10-22T09:46:34.884Z,1002.18
2017-10-22T09:47:45.156Z,1002.32
2017-10-22T09:48:55.718Z,1002.33
2017-10-22T09:50:06.124Z,1002.34
2017-10-22T09:51:16.340Z,1002.25
2017-10-22T09:52:26.576Z,1002.29
2017-10-22T09:53:36.650Z,1002.25
2017-10-22T09:54:46.584Z,1002.36
2017-10-22T09:55:55.405Z,1002.25
2017-10-22T09:57:05.180Z,1002.28
2017-10-22T09:58:15.808Z,1002.37
2017-10-22T09:59:24.952Z,1002.36
2017-10-22T10:00:35.398Z,1002.37
2017-10-22T10:01:45.280Z,1002.39
2017-10-22T10:02:55.477Z,1002.37
2017-10-22T10:04:05.931Z,1002.36
2017-10-22T10:05:16.175Z,1002.35
2017-10-22T10:06:26.335Z,1002.4
2017-10-22T10:07:36.697Z,1002.34
2017-10-22T10:08:46.437Z,1002.31
2017-10-22T10:09:56.485Z,1002.32
2017-10-22T10:11:06.169Z,1002.44
2017-10-22T10:12:15.538Z,1002.56
2017-10-22T10:13:25.542Z,1002.37
2017-10-22T10:14:35.220Z,1002.43
2017-10-22T10:15:44.974Z,1002.41
2017-10-22T10:16:55.455Z,1002.47
2017-10-22T10:18:05.375Z,1002.53
2017-10-22T10:19:14.870Z,1002.47
2017-10-22T10:20:24.699Z,1002.49
2017-10-22T10:21:34.867Z,1002.55
2017-10-22T10:22:44.357Z,1002.43
2017-10-22T10:23:54.894Z,1002.52
2017-10-22T10:25:05.136Z,1002.5
2017-10-22T10:26:14.972Z,1002.51
2017-10-22T10:27:25.467Z,1002.52
2017-10-22T10:28:35.371Z,1002.51
2017-10-22T10:29:45.552Z,1002.55
2017-10-22T10:30:55.716Z,1002.52
2017-10-22T10:32:05.169Z,1002.54
2017-10-22T10:33:14.606Z,1002.6
2017-10-22T10:34:23.769Z,1002.57
2017-10-22T10:35:33.994Z,1002.62
2017-10-22T10:36:44.213Z,1002.6
2017-10-22T10:37:54.691Z,1002.52
2017-10-22T10:39:04.545Z,1002.55
2017-10-22T10:40:14.734Z,1002.52
2017-10-22T10:41:24.558Z,1002.57
2017-10-22T10:42:34.394Z,1002.53
2017-10-22T10:43:44.585Z,1002.57
2017-10-22T10:44:54.803Z,1002.51
2017-10-22T10:46:04.671Z,1002.55
2017-10-22T10:47:14.778Z,1002.58
2017-10-22T10:48:24.594Z,1002.57
2017-10-22T10:49:35.113Z,1002.62
2017-10-22T10:50:44.903Z,1002.58
2017-10-22T10:51:55.024Z,1002.59
2017-10-22T10:53:04.160Z,1002.68
2017-10-22T10:54:13.671Z,1002.53
2017-10-22T10:55:24.174Z,1002.59
2017-10-22T10:56:34.302Z,1002.53
2017-10-22T10:57:44.446Z,1002.6
2017-10-22T10:58:54.237Z,1002.61
2017-10-22T11:00:03.680Z,1002.63
2017-10-22T11:01:14.098Z,1002.58
2017-10-22T11:02:24.611Z,1002.66
2017-10-22T11:03:34.153Z,1002.56
2017-10-22T11:04:44.720Z,1002.58
2017-10-22T11:05:54.943Z,1002.48
2017-10-22T11:07:04.408Z,1002.61
2017-10-22T11:08:14.617Z,1002.72
2017-10-22T11:09:24.481Z,1002.62
2017-10-22T11:10:34.643Z,1002.59
2017-10-22T11:11:44.496Z,1002.55
2017-10-22T11:12:54.314Z,1002.58
2017-10-22T11:14:04.190Z,1002.66
2017-10-22T11:15:14.682Z,1002.61
2017-10-22T11:16:24.847Z,1002.57
2017-10-22T11:17:34.749Z,1002.64
2017-10-22T11:18:44.658Z,1002.61
2017-10-22T11:19:55.211Z,1002.64
2017-10-22T11:21:05.675Z,1002.57
2017-10-22T11:22:15.835Z,1002.58
2017-10-22T11:23:25.354Z,1002.83
2017-10-22T11:24:34.462Z,1002.66
2017-10-22T11:25:44.989Z,1002.61
2017-10-22T11:26:54.500Z,1002.81
2017-10-22T11:28:04.320Z,1002.62
2017-10-22T11:29:14.180Z,1002.69
2017-10-22T11:30:24.034Z,1002.71
2017-10-22T11:31:33.767Z,1002.74
2017-10-22T11:32:43.991Z,1002.67
2017-10-22T11:33:54.490Z,1002.73
2017-10-22T11:35:04.528Z,1002.75
2017-10-22T11:36:14.379Z,1002.68
2017-10-22T11:37:24.134Z,1002.72
2017-10-22T11:38:34.544Z,1002.68
2017-10-22T11:39:44.054Z,1002.7
2017-10-22T11:40:54.581Z,1002.73
2017-10-22T11:42:04.419Z,1002.76
2017-10-22T11:43:13.815Z,1002.69
2017-10-22T11:44:24.049Z,1002.58
2017-10-22T11:45:34.610Z,1002.73
2017-10-22T11:46:43.652Z,1002.69
2017-10-22T11:47:53.558Z,1002.62
2017-10-22T11:49:03.764Z,1002.66
2017-10-22T11:50:13.443Z,1002.71
2017-10-22T11:51:23.126Z,1002.72
2017-10-22T11:52:32.516Z,1002.77
2017-10-22T11:53:42.736Z,1002.7
2017-10-22T11:54:52.906Z,1002.74
2017-10-22T11:56:02.745Z,1002.66
2017-10-22T11:57:12.500Z,1002.7
2017-10-22T11:58:22.975Z,1002.67
2017-10-22T11:59:32.442Z,1002.61
2017-10-22T12:00:42.967Z,1002.73
2017-10-22T12:01:53.081Z,1002.67
2017-10-22T12:03:03.177Z,1002.71
2017-10-22T12:04:13.268Z,1002.73
2017-10-22T12:05:23.694Z,1002.67
2017-10-22T12:06:33.402Z,1002.67
2017-10-22T12:07:43.230Z,1002.62
2017-10-22T12:08:52.761Z,1002.69
2017-10-22T12:10:02.943Z,1002.69
2017-10-22T12:11:12.413Z,1002.72
2017-10-22T12:12:21.815Z,1002.72
2017-10-22T12:13:31.642Z,1002.76
2017-10-22T12:14:41.142Z,1002.69
2017-10-22T12:15:50.991Z,1002.66
2017-10-22T12:17:01.053Z,1002.74
2017-10-22T12:18:11.256Z,1002.72
2017-10-22T12:19:21.454Z,1002.7
2017-10-22T12:20:30.890Z,1002.68
2017-10-22T12:21:40.800Z,1002.77
2017-10-22T12:22:50.592Z,1002.74
2017-10-22T12:24:00.831Z,1002.77
2017-10-22T12:25:10.917Z,1002.81
2017-10-22T12:26:20.767Z,1002.75
2017-10-22T12:27:30.297Z,1002.83
2017-10-22T12:28:40.392Z,1002.81
2017-10-22T12:29:50.997Z,1002.76
2017-10-22T12:31:00.803Z,1002.77
2017-10-22T12:32:10.524Z,1002.81
2017-10-22T12:33:20.009Z,1002.78
2017-10-22T12:34:29.555Z,1002.82
2017-10-22T12:35:38.953Z,1002.87
2017-10-22T12:36:49.460Z,1002.86
2017-10-22T12:37:59.325Z,1002.95
2017-10-22T12:39:09.837Z,1002.91
2017-10-22T12:40:19.570Z,1002.92
2017-10-22T12:41:29.763Z,1003.05
2017-10-22T12:42:39.195Z,1002.92
2017-10-22T12:43:49.258Z,1002.97
2017-10-22T12:44:59.514Z,1002.94
2017-10-22T12:46:10.027Z,1002.93
2017-10-22T12:47:20.068Z,1002.98
2017-10-22T12:48:30.013Z,1002.9
2017-10-22T12:49:40.269Z,1003.09
2017-10-22T12:50:49.363Z,1002.91
2017-10-22T12:51:59.616Z,1002.98
2017-10-22T12:53:10.179Z,1002.93
2017-10-22T12:54:20.274Z,1002.96
2017-10-22T12:55:30.912Z,1002.95
2017-10-22T12:56:41.157Z,1003.02
2017-10-22T12:57:51.220Z,1002.97
2017-10-22T12:59:01.767Z,1003.04
2017-10-22T13:00:11.939Z,1002.99
2017-10-22T13:01:21.354Z,1002.98
2017-10-22T13:02:30.883Z,1002.93
2017-10-22T13:03:41.536Z,1003
2017-10-22T13:04:51.592Z,1003.05
2017-10-22T13:06:02.176Z,1003.02
2017-10-22T13:07:12.351Z,1003.11
2017-10-22T13:08:21.757Z,1003.01
2017-10-22T13:09:32.304Z,1003.05
2017-10-22T13:10:41.988Z,1003.06
2017-10-22T13:11:52.002Z,1003.07
2017-10-22T13:13:02.009Z,1003.11
2017-10-22T13:14:12.020Z,1003.13
2017-10-22T13:15:22.029Z,1003.22
2017-10-22T13:16:32.051Z,1003.18
2017-10-22T13:17:42.065Z,1003.15
2017-10-22T13:18:52.120Z,1003.13
2017-10-22T13:20:01.510Z,1003.13
2017-10-22T13:21:11.533Z,1003.11
2017-10-22T13:22:21.256Z,1003.27
2017-10-22T13:23:30.636Z,1003.15
2017-10-22T13:24:40.345Z,1003.14
2017-10-22T13:25:50.062Z,1003.25
2017-10-22T13:27:00.457Z,1003.18
2017-10-22T13:28:10.521Z,1003.22
2017-10-22T13:29:19.202Z,1003.27
2017-10-22T13:30:28.549Z,1003.25
2017-10-22T13:31:37.906Z,1003.31
2017-10-22T13:32:47.302Z,1003.22
2017-10-22T13:33:57.315Z,1003.26
2017-10-22T13:35:07.003Z,1003.27
2017-10-22T13:36:16.695Z,1003.22
2017-10-22T13:37:26.104Z,1003.28
2017-10-22T13:38:35.903Z,1003.31
2017-10-22T13:39:46.407Z,1003.26
2017-10-22T13:40:56.172Z,1003.24
2017-10-22T13:42:05.890Z,1003.28
2017-10-22T13:43:15.750Z,1003.32
2017-10-22T13:44:25.960Z,1003.33
2017-10-22T13:45:36.317Z,1003.3
2017-10-22T13:46:46.464Z,1003.2
2017-10-22T13:47:56.568Z,1003.37
2017-10-22T13:49:06.300Z,1003.41
2017-10-22T13:50:16.062Z,1003.37
2017-10-22T13:51:26.324Z,1003.4
2017-10-22T13:52:36.506Z,1003.32
2017-10-22T13:53:46.879Z,1003.45
2017-10-22T13:54:57.200Z,1003.49
2017-10-22T13:56:07.708Z,1003.53
2017-10-22T13:57:18.130Z,1003.49
2017-10-22T13:58:28.037Z,1003.47
2017-10-22T13:59:37.601Z,1003.5
2017-10-22T14:00:47.392Z,1003.52
2017-10-22T14:01:57.316Z,1003.7
2017-10-22T14:03:07.111Z,1003.64
2017-10-22T14:04:16.483Z,1003.54
2017-10-22T14:05:26.327Z,1003.68
2017-10-22T14:06:36.252Z,1003.45
2017-10-22T14:07:46.100Z,1003.65
2017-10-22T14:08:55.805Z,1003.62